createdAt,value
2024-05-09T00:04:27.236Z,101304.16
2024-05-09T00:09:31.106Z,101307.63
2024-05-09T00:14:35.059Z,101261.66
2024-05-09T00:19:39.305Z,101302.25
2024-05-09T00:24:43.274Z,101314.56
2024-05-09T00:29:47.309Z,101263.53
2024-05-09T00:34:51.118Z,101313.75
2024-05-09T00:39:55.461Z,101319.72
2024-05-09T00:44:59.215Z,101333.97
2024-05-09T00:50:04.350Z,101316.41
2024-05-09T00:55:11.748Z,101334.06
2024-05-09T01:00:26.074Z,101338.41
2024-05-09T01:05:35.684Z,101347.63
2024-05-09T01:10:42.970Z,101337.16
2024-05-09T01:15:51.151Z,101349.47
2024-05-09T01:20:54.933Z,101366.00
2024-05-09T01:25:58.789Z,101352.28
2024-05-09T01:31:02.840Z,101360.34
2024-05-09T01:36:06.924Z,101362.38
2024-05-09T01:41:11.198Z,101361.34
2024-05-09T01:46:20.214Z,101361.41
2024-05-09T01:51:24.109Z,101361.22
2024-05-09T01:56:28.177Z,101364.69
2024-05-09T02:01:55.334Z,101365.31
2024-05-09T02:06:55.939Z,101368.69
2024-05-09T02:11:59.882Z,101365.81
2024-05-09T02:17:04.041Z,101371.16
2024-05-09T02:22:28.155Z,101352.16
2024-05-09T02:27:32.041Z,101348.16
2024-05-09T02:32:36.048Z,101358.78
2024-05-09T02:37:40.276Z,101347.31
2024-05-09T02:42:44.272Z,101343.44
2024-05-09T02:47:48.725Z,101341.09
2024-05-09T02:52:52.936Z,101344.91
2024-05-09T02:57:56.869Z,101329.03
2024-05-09T03:03:01.124Z,101333.03
2024-05-09T03:08:05.573Z,101339.25
2024-05-09T03:13:15.477Z,101337.53
2024-05-09T03:18:21.104Z,101332.63
2024-05-09T03:23:25.028Z,101335.91
2024-05-09T03:28:28.915Z,101340.44
2024-05-09T03:33:33.059Z,101326.88
2024-05-09T03:38:43.238Z,101335.47
2024-05-09T03:43:47.512Z,101331.72
2024-05-09T03:48:51.456Z,101319.06
2024-05-09T03:53:55.987Z,101324.34
2024-05-09T03:59:00.060Z,101329.97
2024-05-09T04:04:03.836Z,101321.09
2024-05-09T04:09:07.692Z,101311.44
2024-05-09T04:14:11.494Z,101321.53
2024-05-09T04:19:15.746Z,101327.81
2024-05-09T04:24:20.463Z,101309.91
2024-05-09T04:29:24.653Z,101327.75
2024-05-09T04:34:29.050Z,101308.06
2024-05-09T04:39:32.940Z,101319.03
2024-05-09T04:44:37.214Z,101301.19
2024-05-09T04:49:42.999Z,101316.16
2024-05-09T04:54:47.235Z,101313.19
2024-05-09T04:59:51.690Z,101299.75
2024-05-09T05:04:55.714Z,101288.75
2024-05-09T05:10:01.570Z,101282.66
2024-05-09T05:15:06.019Z,101242.16
2024-05-09T05:20:15.055Z,101272.06
2024-05-09T05:25:19.272Z,101277.19
2024-05-09T05:30:28.964Z,101269.06
2024-05-09T05:35:37.741Z,101254.28
2024-05-09T05:40:41.893Z,101242.66
2024-05-09T05:45:46.593Z,101256.13
2024-05-09T05:50:50.422Z,101257.03
2024-05-09T05:55:54.577Z,101243.94
2024-05-09T06:00:58.603Z,101239.91
2024-05-09T06:06:04.545Z,101242.47
2024-05-09T06:11:08.561Z,101235.69
2024-05-09T06:16:12.366Z,101223.47
2024-05-09T06:21:19.407Z,101213.47
2024-05-09T06:26:23.374Z,101209.34
2024-05-09T06:31:27.725Z,101200.69
2024-05-09T06:36:31.639Z,101193.69
2024-05-09T06:41:35.692Z,101182.66
2024-05-09T06:46:41.024Z,101175.94
2024-05-09T06:51:44.826Z,101160.91
2024-05-09T06:56:48.937Z,101161.56
2024-05-09T07:01:53.476Z,101146.59
2024-05-09T07:06:58.653Z,101155.06
2024-05-09T07:12:02.522Z,101129.16
2024-05-09T07:17:06.748Z,101147.75
2024-05-09T07:22:10.916Z,101132.69
2024-05-09T07:27:14.859Z,101128.03
2024-05-09T07:32:19.139Z,101115.84
2024-05-09T07:37:23.400Z,101111.22
2024-05-09T07:42:27.440Z,101101.94
2024-05-09T07:48:57.370Z,101091.81
2024-05-09T07:58:02.664Z,101070.28
2024-05-09T08:03:06.735Z,101056.94
2024-05-09T08:08:12.305Z,101063.16
2024-05-09T08:13:16.133Z,101052.41
2024-05-09T08:18:20.434Z,101062.75
2024-05-09T08:23:24.715Z,101058.88
2024-05-09T08:28:28.913Z,101046.25
2024-05-09T08:33:33.603Z,101059.44
2024-05-09T08:38:37.798Z,101043.38
2024-05-09T08:43:42.784Z,101032.19
2024-05-09T08:48:49.320Z,101013.59
2024-05-09T08:53:53.303Z,101002.63
2024-05-09T08:59:01.901Z,100991.50
2024-05-09T09:04:06.758Z,100992.66
2024-05-09T09:09:12.996Z,100982.56
2024-05-09T09:14:16.849Z,100986.50
2024-05-09T09:19:21.167Z,100987.78
2024-05-09T09:24:25.081Z,100952.38
2024-05-09T09:29:29.495Z,100959.66
2024-05-09T09:34:34.300Z,100972.88
2024-05-09T09:39:40.725Z,100979.59
2024-05-09T09:44:51.376Z,100977.19
2024-05-09T09:50:09.397Z,100974.72
2024-05-09T09:55:18.302Z,100973.94
2024-05-09T10:00:30.547Z,100975.38
2024-05-09T10:05:39.774Z,100960.06
2024-05-09T10:10:51.163Z,100907.91
2024-05-09T10:15:55.272Z,100933.25
2024-05-09T10:21:00.306Z,100939.56
2024-05-09T10:26:07.601Z,100912.78
2024-05-09T10:31:14.095Z,100926.78
2024-05-09T10:36:28.316Z,100918.50
2024-05-09T10:41:32.224Z,100920.91
2024-05-09T10:46:36.624Z,100912.38
2024-05-09T10:51:42.728Z,100902.50
2024-05-09T10:56:47.346Z,100915.84
2024-05-09T11:01:51.704Z,100909.56
2024-05-09T11:06:57.316Z,100896.44
2024-05-09T11:12:01.920Z,100887.16
2024-05-09T11:17:07.833Z,100861.44
2024-05-09T11:22:11.898Z,100895.47
2024-05-09T11:27:15.817Z,100885.88
2024-05-09T11:32:30.856Z,100855.97
2024-05-09T11:37:36.076Z,100878.34
2024-05-09T11:42:41.584Z,100875.19
2024-05-09T11:47:45.381Z,100868.16
2024-05-09T11:52:49.583Z,100876.22
2024-05-09T11:57:53.543Z,100833.28
2024-05-09T12:02:59.751Z,100866.72
2024-05-09T12:08:03.671Z,100872.22
2024-05-09T12:13:08.257Z,100839.28
2024-05-09T12:18:12.482Z,100873.50
2024-05-09T12:23:16.509Z,100886.16
2024-05-09T12:28:21.446Z,100868.19
2024-05-09T12:33:25.455Z,100826.03
2024-05-09T12:38:29.472Z,100840.13
2024-05-09T12:43:33.581Z,100796.44
2024-05-09T12:48:37.762Z,100835.81
2024-05-09T12:53:42.043Z,100829.94
2024-05-09T12:58:45.923Z,100828.69
2024-05-09T13:03:50.230Z,100816.94
2024-05-09T13:08:54.322Z,100820.50
2024-05-09T13:13:58.502Z,100820.66
2024-05-09T13:19:02.426Z,100812.72
2024-05-09T13:24:06.760Z,100793.59
2024-05-09T13:29:10.724Z,100810.00
2024-05-09T13:34:14.667Z,100797.25
2024-05-09T13:39:18.721Z,100810.81
2024-05-09T13:44:22.485Z,100806.16
2024-05-09T13:49:26.814Z,100797.81
2024-05-09T13:54:31.164Z,100788.47
2024-05-09T13:59:35.011Z,100774.66
2024-05-09T14:04:39.332Z,100779.06
2024-05-09T14:09:43.820Z,100763.09
2024-05-09T14:14:47.864Z,100757.59
2024-05-09T14:19:51.712Z,100726.84
2024-05-09T14:24:55.859Z,100744.69
2024-05-09T14:29:59.856Z,100747.78
2024-05-09T14:35:04.418Z,100746.59
2024-05-09T14:40:14.755Z,100720.81
2024-05-09T14:45:25.826Z,100711.59
2024-05-09T14:50:35.845Z,100697.00
2024-05-09T14:55:43.954Z,100684.56
2024-05-09T15:00:51.121Z,100652.22
2024-05-09T15:05:56.162Z,100641.28
2024-05-09T15:11:00.404Z,100640.16
2024-05-09T15:16:05.495Z,100642.28
2024-05-09T15:21:09.424Z,100637.13
2024-05-09T15:26:13.219Z,100638.72
2024-05-09T15:31:17.222Z,100647.94
2024-05-09T15:36:21.831Z,100641.75
2024-05-09T15:41:25.756Z,100632.13
2024-05-09T15:46:29.875Z,100635.91
2024-05-09T15:51:35.461Z,100620.88
2024-05-09T15:56:40.345Z,100625.31
2024-05-09T16:01:44.731Z,100605.16
2024-05-09T16:06:48.975Z,100586.44
2024-05-09T16:11:52.814Z,100580.19
2024-05-09T16:16:57.004Z,100570.88
2024-05-09T16:22:01.393Z,100564.63
2024-05-09T16:27:05.554Z,100561.59
2024-05-09T16:32:09.631Z,100543.72
2024-05-09T16:37:13.734Z,100534.91
2024-05-09T16:42:17.922Z,100506.09
2024-05-09T16:47:22.143Z,100524.44
2024-05-09T16:52:26.180Z,100518.31
2024-05-09T16:57:30.469Z,100526.88
2024-05-09T17:02:37.056Z,100504.22
2024-05-09T17:07:42.603Z,100489.63
2024-05-09T17:12:46.499Z,100502.41
2024-05-09T17:17:50.932Z,100514.63
2024-05-09T17:22:54.946Z,100471.81
2024-05-09T17:28:06.514Z,100500.78
2024-05-09T17:33:12.833Z,100485.09
2024-05-09T17:38:17.603Z,100476.69
2024-05-09T17:43:21.842Z,100468.41
2024-05-09T17:48:25.983Z,100475.78
2024-05-09T17:53:29.912Z,100464.06
2024-05-09T17:58:34.285Z,100466.41
2024-05-09T18:03:39.454Z,100429.84
2024-05-09T18:08:43.716Z,100439.72
2024-05-09T18:13:48.286Z,100429.78
2024-05-09T18:18:52.443Z,100434.22
2024-05-09T18:23:58.768Z,100417.88
2024-05-09T18:29:04.849Z,100412.50
2024-05-09T18:34:08.714Z,100411.84
2024-05-09T18:39:12.569Z,100357.47
2024-05-09T18:44:16.366Z,100407.16
2024-05-09T18:49:20.615Z,100416.88
2024-05-09T18:54:24.722Z,100424.94
2024-05-09T18:59:28.967Z,100415.78
2024-05-09T19:04:34.587Z,100406.56
2024-05-09T19:09:38.663Z,100407.44
2024-05-09T19:14:42.547Z,100408.31
2024-05-09T19:19:46.381Z,100411.41
2024-05-09T19:24:50.523Z,100398.28
2024-05-09T19:29:57.207Z,100383.88
2024-05-09T19:35:01.731Z,100381.41
2024-05-09T19:40:12.475Z,100360.34
2024-05-09T19:45:22.387Z,100352.88
2024-05-09T19:50:32.718Z,100332.00
2024-05-09T19:55:44.903Z,100312.66
2024-05-09T20:00:49.522Z,100345.38
2024-05-09T20:05:53.533Z,100333.72
2024-05-09T20:10:57.677Z,100321.41
2024-05-09T20:16:02.191Z,100325.00
2024-05-09T20:21:07.059Z,100315.00
2024-05-09T20:26:11.523Z,100287.84
2024-05-09T20:31:22.624Z,100281.88
2024-05-09T20:36:26.868Z,100287.38
2024-05-09T20:41:31.630Z,100279.34
2024-05-09T20:46:36.265Z,100296.72
2024-05-09T20:51:40.526Z,100271.66
2024-05-09T20:56:44.449Z,100283.69
2024-05-09T21:01:49.608Z,100255.75
2024-05-09T21:06:53.605Z,100247.34
2024-05-09T21:11:57.697Z,100242.47
2024-05-09T21:17:01.824Z,100247.75
2024-05-09T21:22:05.848Z,100235.56
2024-05-09T21:27:09.716Z,100249.53
2024-05-09T21:32:13.461Z,100235.13
2024-05-09T21:37:17.801Z,100197.25
2024-05-09T21:42:21.745Z,100168.16
2024-05-09T21:47:26.017Z,100164.25
2024-05-09T21:52:30.174Z,100186.44
2024-05-09T21:57:34.083Z,100208.41
2024-05-09T22:02:38.137Z,100209.50
2024-05-09T22:07:42.130Z,100211.16
2024-05-09T22:12:46.018Z,100189.44
2024-05-09T22:17:50.048Z,100188.81
2024-05-09T22:22:55.045Z,100171.41
2024-05-09T22:27:59.305Z,100167.63
2024-05-09T22:33:03.584Z,100164.50
2024-05-09T22:38:07.408Z,100164.56
2024-05-09T22:43:12.918Z,100160.31
2024-05-09T22:48:16.935Z,100149.25
2024-05-09T22:53:25.266Z,100148.03
2024-05-09T22:58:29.851Z,100138.25
2024-05-09T23:03:34.522Z,100126.41
2024-05-09T23:08:38.679Z,100087.97
2024-05-09T23:13:42.656Z,100113.41
2024-05-09T23:18:46.405Z,100121.97
2024-05-09T23:23:50.444Z,100111.88
2024-05-09T23:28:54.250Z,100084.41
2024-05-09T23:33:58.766Z,100091.00
2024-05-09T23:39:02.967Z,100089.88
2024-05-09T23:44:06.682Z,100070.81
2024-05-09T23:49:11.985Z,100072.72
2024-05-09T23:54:15.695Z,100059.59
2024-05-09T23:59:19.718Z,100052.28
